createdAt,value
2018-07-11T00:01:46.488Z,66.90
2018-07-11T00:04:15.332Z,67.20
2018-07-11T00:06:44.188Z,67.40
2018-07-11T00:09:13.060Z,67.60
2018-07-11T00:11:41.861Z,67.60
2018-07-11T00:14:10.713Z,67.50
2018-07-11T00:16:40.293Z,67.40
2018-07-11T00:19:09.131Z,67.50
2018-07-11T00:21:37.974Z,67.30
2018-07-11T00:24:06.809Z,67.80
2018-07-11T00:26:35.645Z,68.10
2018-07-11T00:29:04.471Z,68.20
2018-07-11T00:31:33.303Z,68.60
2018-07-11T00:34:02.143Z,68.90
2018-07-11T00:36:30.989Z,69.10
2018-07-11T00:38:59.835Z,69.50
2018-07-11T00:41:29.431Z,69.30
2018-07-11T00:43:58.279Z,69.40
2018-07-11T00:46:27.135Z,69.40
2018-07-11T00:48:56.019Z,69.30
2018-07-11T00:51:24.859Z,69.20
2018-07-11T00:53:53.689Z,69.10
2018-07-11T00:56:23.410Z,69.30
2018-07-11T00:58:52.108Z,69.50
2018-07-11T01:01:20.950Z,69.60
2018-07-11T01:03:49.796Z,69.70
2018-07-11T01:06:18.635Z,69.80
2018-07-11T01:08:47.471Z,69.90
2018-07-11T01:11:16.317Z,69.80
2018-07-11T01:13:45.157Z,69.70
2018-07-11T01:16:14.022Z,69.80
2018-07-11T01:18:43.624Z,70.00
2018-07-11T01:21:12.469Z,70.10
2018-07-11T01:23:41.311Z,70.10
2018-07-11T01:26:10.891Z,70.20
2018-07-11T01:28:39.722Z,70.10
2018-07-11T01:31:08.567Z,70.40
2018-07-11T01:33:37.417Z,70.70
2018-07-11T01:36:06.258Z,70.70
2018-07-11T01:38:35.097Z,70.60
2018-07-11T01:41:03.934Z,70.80
2018-07-11T01:43:32.765Z,70.60
2018-07-11T01:46:01.606Z,70.90
2018-07-11T01:48:30.432Z,70.90
2018-07-11T01:50:59.279Z,70.80
2018-07-11T01:53:28.109Z,70.60
2018-07-11T01:55:56.957Z,70.80
2018-07-11T01:58:25.787Z,70.60
2018-07-11T02:00:54.636Z,70.60
2018-07-11T02:03:23.500Z,70.70
2018-07-11T02:05:52.347Z,71.00
2018-07-11T02:08:21.190Z,71.40
2018-07-11T02:10:50.026Z,71.50
2018-07-11T02:13:18.881Z,71.50
2018-07-11T02:15:47.722Z,71.70
2018-07-11T02:18:17.293Z,71.80
2018-07-11T02:20:46.133Z,71.80
2018-07-11T02:23:15.723Z,71.80
2018-07-11T02:25:44.599Z,71.90
2018-07-11T02:28:13.405Z,71.70
2018-07-11T02:30:42.241Z,71.80
2018-07-11T02:33:11.078Z,71.80
2018-07-11T02:35:39.921Z,72.00
2018-07-11T02:38:08.771Z,71.90
2018-07-11T02:40:37.607Z,71.80
2018-07-11T02:43:06.450Z,72.00
2018-07-11T02:45:35.288Z,71.80
2018-07-11T02:48:04.152Z,71.70
2018-07-11T02:50:32.990Z,71.80
2018-07-11T02:53:01.822Z,72.20
2018-07-11T02:55:30.668Z,72.30
2018-07-11T02:57:59.516Z,72.60
2018-07-11T03:00:28.358Z,72.60
2018-07-11T03:02:57.193Z,72.60
2018-07-11T03:05:26.035Z,73.30
2018-07-11T03:07:54.871Z,73.70
2018-07-11T03:10:23.728Z,74.00
2018-07-11T03:12:52.587Z,74.50
2018-07-11T03:15:21.431Z,74.60
2018-07-11T03:17:51.011Z,74.10
2018-07-11T03:20:19.849Z,73.90
2018-07-11T03:22:48.688Z,73.40
2018-07-11T03:27:46.355Z,73.70
2018-07-11T03:30:15.187Z,74.70
2018-07-11T03:32:44.021Z,73.70
2018-07-11T03:35:12.858Z,74.00
2018-07-11T03:37:41.694Z,74.20
2018-07-11T03:40:10.526Z,74.20
2018-07-11T03:42:39.367Z,74.30
2018-07-11T03:45:08.207Z,74.20
2018-07-11T03:47:37.046Z,73.80
2018-07-11T03:50:05.880Z,73.50
2018-07-11T03:52:34.721Z,73.50
2018-07-11T03:55:03.557Z,73.80
2018-07-11T03:57:32.387Z,73.70
2018-07-11T04:00:01.228Z,73.80
2018-07-11T04:02:30.060Z,74.00
2018-07-11T04:04:58.902Z,73.90
2018-07-11T04:07:27.730Z,73.90
2018-07-11T04:09:56.574Z,74.00
2018-07-11T04:12:25.413Z,74.20
2018-07-11T04:14:55.002Z,74.10
2018-07-11T04:17:23.841Z,74.10
2018-07-11T04:19:52.675Z,73.70
2018-07-11T04:22:21.540Z,73.90
2018-07-11T04:24:50.377Z,73.80
2018-07-11T04:27:19.214Z,74.20
2018-07-11T04:29:48.051Z,74.70
2018-07-11T04:32:16.881Z,74.70
2018-07-11T04:34:46.470Z,75.00
2018-07-11T04:37:15.303Z,75.30
2018-07-11T04:39:44.148Z,75.00
2018-07-11T04:42:13.803Z,74.20
2018-07-11T04:44:42.575Z,73.50
2018-07-11T04:47:11.412Z,73.20
2018-07-11T04:49:40.249Z,72.80
2018-07-11T04:52:09.107Z,73.00
2018-07-11T04:54:37.981Z,72.90
2018-07-11T04:57:06.820Z,72.70
2018-07-11T04:59:35.666Z,72.40
2018-07-11T05:02:04.498Z,72.60
2018-07-11T05:04:34.077Z,72.90
2018-07-11T05:07:02.907Z,72.60
2018-07-11T05:09:32.485Z,72.30
2018-07-11T05:12:01.309Z,72.10
2018-07-11T05:14:30.883Z,72.20
2018-07-11T05:16:59.717Z,72.00
2018-07-11T05:19:29.295Z,71.80
2018-07-11T05:21:58.139Z,71.90
2018-07-11T05:24:26.982Z,72.20
2018-07-11T05:26:55.817Z,72.60
2018-07-11T05:29:25.396Z,72.10
2018-07-11T05:31:54.235Z,71.20
2018-07-11T05:34:23.075Z,71.40
2018-07-11T05:36:51.902Z,71.60
2018-07-11T05:39:20.750Z,71.60
2018-07-11T05:41:49.604Z,70.90
2018-07-11T05:44:18.450Z,70.60
2018-07-11T05:46:47.294Z,70.70
2018-07-11T05:49:16.136Z,71.10
2018-07-11T05:51:44.971Z,71.30
2018-07-11T05:54:13.813Z,71.40
2018-07-11T05:56:42.656Z,71.40
2018-07-11T05:59:11.502Z,71.80
2018-07-11T06:01:40.356Z,71.90
2018-07-11T06:04:09.191Z,72.00
2018-07-11T06:06:38.051Z,71.60
2018-07-11T06:09:06.910Z,71.30
2018-07-11T06:11:35.745Z,71.50
2018-07-11T06:14:04.592Z,71.30
2018-07-11T06:16:33.432Z,70.60
2018-07-11T06:19:02.281Z,70.70
2018-07-11T06:21:31.224Z,70.50
2018-07-11T06:24:00.017Z,70.80
2018-07-11T06:26:29.602Z,70.70
2018-07-11T06:28:58.433Z,70.70
2018-07-11T06:31:27.280Z,70.80
2018-07-11T06:33:56.152Z,70.50
2018-07-11T06:36:24.989Z,69.80
2018-07-11T06:38:53.831Z,69.70
2018-07-11T06:41:22.662Z,69.90
2018-07-11T06:43:51.511Z,70.10
2018-07-11T06:46:20.344Z,70.60
2018-07-11T06:48:49.198Z,70.10
2018-07-11T06:51:18.044Z,69.70
2018-07-11T06:53:46.889Z,69.40
2018-07-11T06:56:16.503Z,69.60
2018-07-11T06:58:45.335Z,70.00
2018-07-11T07:01:14.198Z,69.60
2018-07-11T07:03:43.783Z,69.30
2018-07-11T07:06:12.631Z,69.20
2018-07-11T07:08:41.485Z,68.90
2018-07-11T07:11:10.329Z,68.90
2018-07-11T07:13:39.158Z,68.50
2018-07-11T07:16:08.024Z,68.20
2018-07-11T07:18:36.851Z,67.20
2018-07-11T07:21:05.688Z,66.30
2018-07-11T07:23:34.612Z,66.20
2018-07-11T07:26:03.463Z,65.90
2018-07-11T07:28:32.291Z,67.10
2018-07-11T07:31:01.126Z,67.00
2018-07-11T07:33:30.013Z,66.70
2018-07-11T07:35:59.769Z,66.60
2018-07-11T07:38:28.615Z,66.60
2018-07-11T07:40:57.455Z,66.80
2018-07-11T07:43:26.287Z,65.70
2018-07-11T07:45:55.139Z,66.50
2018-07-11T07:48:23.978Z,65.40
2018-07-11T07:50:53.555Z,65.60
2018-07-11T07:53:22.414Z,66.00
2018-07-11T07:55:51.250Z,66.20
2018-07-11T07:58:20.822Z,66.50
2018-07-11T08:00:49.661Z,66.10
2018-07-11T08:03:19.247Z,66.20
2018-07-11T08:05:48.092Z,66.70
2018-07-11T08:08:16.933Z,66.20
2018-07-11T08:10:45.792Z,66.00
2018-07-11T08:13:14.627Z,65.40
2018-07-11T08:15:43.471Z,65.50
2018-07-11T08:18:12.320Z,64.70
2018-07-11T08:20:41.158Z,64.10
2018-07-11T08:23:21.931Z,64.60
2018-07-11T08:26:04.373Z,64.00
2018-07-11T08:28:33.223Z,64.30
2018-07-11T08:31:02.067Z,65.10
2018-07-11T08:33:30.906Z,65.30
2018-07-11T08:35:59.748Z,65.30
2018-07-11T08:38:28.578Z,65.70
2018-07-11T08:40:57.418Z,66.00
2018-07-11T08:43:26.263Z,66.00
2018-07-11T08:45:55.112Z,65.80
2018-07-11T08:48:24.022Z,66.40
2018-07-11T08:50:52.794Z,66.20
2018-07-11T08:53:21.631Z,65.10
2018-07-11T08:55:51.213Z,65.10
2018-07-11T08:58:20.046Z,64.80
2018-07-11T09:00:48.892Z,65.80
2018-07-11T09:03:17.724Z,64.80
2018-07-11T09:05:46.566Z,65.90
2018-07-11T09:08:15.414Z,64.70
2018-07-11T09:10:44.266Z,64.10
2018-07-11T09:13:13.089Z,63.90
2018-07-11T09:15:41.942Z,64.60
2018-07-11T09:18:10.786Z,64.90
2018-07-11T09:20:39.627Z,63.70
2018-07-11T09:23:09.201Z,63.20
2018-07-11T09:25:38.063Z,62.30
2018-07-11T09:28:06.896Z,62.70
2018-07-11T09:30:35.814Z,61.80
2018-07-11T09:33:04.585Z,61.10
2018-07-11T09:35:33.438Z,62.00
2018-07-11T09:38:02.267Z,62.20
2018-07-11T09:40:31.875Z,61.80
2018-07-11T09:43:00.699Z,61.30
2018-07-11T09:45:29.594Z,61.50
2018-07-11T09:47:58.377Z,62.00
2018-07-11T09:50:27.969Z,61.80
2018-07-11T09:52:56.815Z,61.90
2018-07-11T09:55:25.664Z,62.50
2018-07-11T09:57:54.508Z,62.50
2018-07-11T10:00:23.346Z,62.70
2018-07-11T10:02:52.210Z,63.00
2018-07-11T10:05:21.054Z,63.00
2018-07-11T10:07:49.902Z,62.50
2018-07-11T10:10:18.753Z,62.80
2018-07-11T10:12:47.597Z,63.10
2018-07-11T10:15:16.442Z,62.90
2018-07-11T10:17:45.279Z,62.60
2018-07-11T10:20:14.861Z,62.70
2018-07-11T10:22:43.705Z,62.70
2018-07-11T10:25:12.548Z,63.00
2018-07-11T10:27:41.382Z,63.10
2018-07-11T10:30:10.218Z,63.70
2018-07-11T10:32:39.053Z,63.60
2018-07-11T10:35:08.634Z,63.40
2018-07-11T10:37:37.476Z,63.10
2018-07-11T10:40:06.314Z,63.20
2018-07-11T10:42:35.163Z,63.50
2018-07-11T10:45:04.044Z,63.40
2018-07-11T10:47:32.879Z,63.50
2018-07-11T10:50:01.718Z,62.80
2018-07-11T10:52:30.552Z,62.10
2018-07-11T10:54:59.389Z,61.80
2018-07-11T10:57:28.241Z,60.60
2018-07-11T10:59:57.071Z,59.60
2018-07-11T11:02:25.911Z,59.30
2018-07-11T11:04:54.815Z,58.50
2018-07-11T11:07:23.585Z,57.50
2018-07-11T11:09:52.448Z,57.10
2018-07-11T11:12:21.281Z,57.10
2018-07-11T11:14:50.133Z,57.70
2018-07-11T11:17:18.967Z,58.00
2018-07-11T11:19:47.800Z,58.40
2018-07-11T11:22:16.646Z,58.30
2018-07-11T11:24:45.500Z,57.00
2018-07-11T11:27:14.343Z,56.40
2018-07-11T11:29:43.195Z,56.10
2018-07-11T11:32:12.023Z,56.20
2018-07-11T11:34:40.871Z,56.50
2018-07-11T11:37:10.567Z,55.40
2018-07-11T11:39:39.411Z,55.90
2018-07-11T11:42:09.365Z,56.30
2018-07-11T11:44:37.845Z,56.00
2018-07-11T11:47:06.682Z,56.30
2018-07-11T11:49:36.334Z,56.40
2018-07-11T11:52:05.238Z,56.60
2018-07-11T11:54:34.075Z,55.80
2018-07-11T11:57:03.652Z,54.40
2018-07-11T11:59:32.491Z,53.20
2018-07-11T12:02:01.346Z,53.10
2018-07-11T12:04:30.186Z,53.60
2018-07-11T12:06:59.041Z,51.80
2018-07-11T12:09:28.854Z,51.30
2018-07-11T12:11:58.434Z,51.10
2018-07-11T12:14:27.277Z,51.00
2018-07-11T12:16:56.106Z,50.90
2018-07-11T12:19:24.941Z,51.30
2018-07-11T12:21:53.784Z,51.20
2018-07-11T12:24:22.627Z,51.40
2018-07-11T12:26:51.466Z,51.30
2018-07-11T12:29:20.297Z,50.80
2018-07-11T12:31:49.137Z,50.70
2018-07-11T12:34:17.976Z,50.60
2018-07-11T12:36:46.818Z,52.10
2018-07-11T12:39:15.652Z,50.70
2018-07-11T12:41:44.508Z,50.80
2018-07-11T12:44:13.353Z,51.10
2018-07-11T12:46:42.211Z,50.20
2018-07-11T12:49:11.053Z,49.90
2018-07-11T12:51:39.900Z,49.80
2018-07-11T12:54:09.492Z,51.00
2018-07-11T12:56:39.087Z,51.40
2018-07-11T12:59:07.936Z,50.70
2018-07-11T13:01:36.787Z,49.20
2018-07-11T13:04:06.391Z,49.60
2018-07-11T13:06:35.252Z,48.80
2018-07-11T13:09:04.081Z,48.20
2018-07-11T13:11:33.674Z,48.20
2018-07-11T13:14:02.548Z,48.40
2018-07-11T13:16:31.383Z,48.30
2018-07-11T13:19:00.199Z,47.40
2018-07-11T13:21:29.042Z,47.50
2018-07-11T13:23:57.914Z,47.70
2018-07-11T13:26:26.763Z,47.20
2018-07-11T13:28:55.609Z,48.00
2018-07-11T13:31:24.466Z,46.20
2018-07-11T13:33:53.308Z,44.00
2018-07-11T13:36:22.886Z,43.00
2018-07-11T13:38:51.730Z,43.70
2018-07-11T13:41:20.570Z,41.20
2018-07-11T13:43:49.415Z,40.30
2018-07-11T13:46:18.259Z,40.60
2018-07-11T13:48:47.113Z,39.90
2018-07-11T13:51:15.948Z,40.10
2018-07-11T13:53:44.811Z,39.70
2018-07-11T13:56:13.649Z,40.40
2018-07-11T13:58:42.512Z,42.10
2018-07-11T14:01:12.090Z,43.00
2018-07-11T14:03:40.943Z,44.10
2018-07-11T14:06:09.796Z,44.30
2018-07-11T14:08:39.381Z,45.20
2018-07-11T14:11:08.221Z,44.40
2018-07-11T14:13:37.072Z,44.80
2018-07-11T14:16:05.914Z,45.20
2018-07-11T14:18:34.756Z,46.00
2018-07-11T14:21:03.618Z,45.60
2018-07-11T14:23:32.478Z,45.60
2018-07-11T14:26:01.319Z,45.60
2018-07-11T14:28:30.171Z,46.00
2018-07-11T14:30:59.001Z,46.30
2018-07-11T14:33:27.840Z,46.70
2018-07-11T14:35:56.704Z,46.80
2018-07-11T14:38:25.546Z,46.80
2018-07-11T14:40:54.386Z,46.90
2018-07-11T14:43:24.021Z,46.70
2018-07-11T14:45:52.829Z,47.20
2018-07-11T14:48:21.701Z,47.50
2018-07-11T14:50:50.534Z,47.60
2018-07-11T14:53:19.374Z,47.60
2018-07-11T14:55:48.228Z,47.80
2018-07-11T14:58:17.109Z,48.20
2018-07-11T15:00:45.919Z,48.50
2018-07-11T15:03:14.751Z,48.70
2018-07-11T15:05:43.657Z,48.10
2018-07-11T15:08:12.510Z,48.10
2018-07-11T15:10:41.317Z,48.30
2018-07-11T15:13:10.138Z,48.60
2018-07-11T15:15:39.001Z,48.90
2018-07-11T15:18:08.262Z,49.30
2018-07-11T15:20:37.724Z,49.10
2018-07-11T15:23:06.578Z,49.20
2018-07-11T15:25:35.421Z,48.80
2018-07-11T15:28:04.275Z,48.80
2018-07-11T15:30:33.111Z,48.80
2018-07-11T15:35:32.132Z,48.20
2018-07-11T15:38:01.070Z,47.90
2018-07-11T15:40:29.824Z,48.30
2018-07-11T15:42:58.665Z,48.80
2018-07-11T15:45:27.659Z,48.80
2018-07-11T15:47:56.372Z,49.00
2018-07-11T15:50:25.213Z,49.40
2018-07-11T15:52:54.064Z,49.80
2018-07-11T15:55:22.909Z,49.60
2018-07-11T15:57:51.754Z,49.70
2018-07-11T16:00:20.594Z,49.60
2018-07-11T16:02:49.429Z,50.20
2018-07-11T16:05:18.287Z,50.30
2018-07-11T16:07:47.131Z,50.10
2018-07-11T16:10:15.988Z,49.70
2018-07-11T16:12:44.842Z,50.30
2018-07-11T16:15:13.692Z,50.40
2018-07-11T16:17:42.538Z,50.50
2018-07-11T16:20:11.387Z,50.60
2018-07-11T16:22:40.243Z,50.50
2018-07-11T16:25:09.130Z,50.80
2018-07-11T16:27:38.669Z,50.50
2018-07-11T16:30:07.502Z,50.40
2018-07-11T16:32:36.338Z,49.60
2018-07-11T16:35:05.180Z,49.40
2018-07-11T16:37:34.023Z,50.00
2018-07-11T16:40:02.864Z,50.40
2018-07-11T16:42:31.705Z,50.60
2018-07-11T16:45:00.549Z,50.40
2018-07-11T16:47:29.385Z,49.10
2018-07-11T16:49:58.247Z,49.40
2018-07-11T16:52:27.092Z,48.80
2018-07-11T16:54:56.109Z,49.40
2018-07-11T16:57:24.947Z,49.30
2018-07-11T16:59:53.804Z,49.40
2018-07-11T17:02:22.645Z,49.50
2018-07-11T17:04:51.498Z,49.90
2018-07-11T17:07:20.368Z,49.40
2018-07-11T17:09:49.219Z,49.80
2018-07-11T17:12:18.814Z,49.90
2018-07-11T17:14:48.395Z,50.10
2018-07-11T17:17:17.259Z,50.10
2018-07-11T17:19:46.145Z,50.10
2018-07-11T17:22:14.945Z,50.20
2018-07-11T17:24:43.779Z,50.40
2018-07-11T17:27:12.699Z,50.40
2018-07-11T17:29:41.507Z,50.60
2018-07-11T17:32:10.345Z,50.10
2018-07-11T17:34:39.199Z,49.70
2018-07-11T17:37:08.116Z,49.90
2018-07-11T17:39:36.902Z,49.50
2018-07-11T17:42:05.744Z,49.10
2018-07-11T17:44:34.583Z,48.80
2018-07-11T17:47:03.663Z,49.00
2018-07-11T17:49:32.296Z,49.30
2018-07-11T17:52:01.176Z,49.40
2018-07-11T17:54:30.781Z,49.70
2018-07-11T17:57:00.373Z,49.60
2018-07-11T17:59:29.231Z,49.90
2018-07-11T18:01:58.077Z,48.90
2018-07-11T18:04:26.924Z,48.90
2018-07-11T18:06:55.766Z,48.90
2018-07-11T18:09:24.608Z,49.10
2018-07-11T18:11:53.450Z,49.30
2018-07-11T18:14:22.304Z,49.40
2018-07-11T18:16:51.917Z,49.60
2018-07-11T18:19:21.520Z,49.90
2018-07-11T18:21:50.377Z,50.10
2018-07-11T18:24:19.209Z,50.30
2018-07-11T18:26:47.387Z,50.20
2018-07-11T18:29:16.940Z,50.50
2018-07-11T18:31:45.790Z,50.50
2018-07-11T18:34:14.656Z,50.60
2018-07-11T18:36:43.505Z,50.70
2018-07-11T18:39:12.346Z,50.90
2018-07-11T18:41:41.204Z,50.90
2018-07-11T18:44:10.043Z,51.10
2018-07-11T18:46:38.885Z,50.90
2018-07-11T18:49:07.717Z,51.30
2018-07-11T18:51:36.550Z,51.70
2018-07-11T18:54:05.414Z,51.80
2018-07-11T18:56:34.249Z,51.90
2018-07-11T18:59:03.107Z,52.00
2018-07-11T19:01:31.950Z,52.10
2018-07-11T19:04:01.597Z,52.20
2018-07-11T19:06:30.795Z,52.20
2018-07-11T19:09:00.044Z,52.30
2018-07-11T19:11:28.890Z,52.70
2018-07-11T19:13:57.736Z,53.30
2018-07-11T19:16:27.354Z,53.30
2018-07-11T19:18:56.180Z,53.20
2018-07-11T19:21:25.012Z,53.10
2018-07-11T19:23:53.879Z,53.40
2018-07-11T19:26:22.713Z,53.40
2018-07-11T19:28:51.595Z,53.30
2018-07-11T19:31:20.427Z,53.80
2018-07-11T19:33:49.276Z,54.00
2018-07-11T19:36:18.875Z,54.10
2018-07-11T19:38:48.461Z,54.10
2018-07-11T19:41:17.320Z,54.30
2018-07-11T19:43:46.204Z,54.00
2018-07-11T19:46:15.050Z,54.30
2018-07-11T19:48:43.951Z,54.40
2018-07-11T19:51:13.527Z,54.40
2018-07-11T19:53:42.375Z,54.20
2018-07-11T19:56:11.239Z,54.40
2018-07-11T19:58:40.865Z,54.70
2018-07-11T20:01:09.737Z,54.80
2018-07-11T20:03:39.327Z,55.00
2018-07-11T20:06:08.189Z,55.00
2018-07-11T20:08:37.032Z,55.00
2018-07-11T20:11:05.879Z,55.20
2018-07-11T20:13:34.728Z,55.60
2018-07-11T20:16:03.566Z,55.60
2018-07-11T20:18:32.431Z,55.70
2018-07-11T20:21:01.277Z,55.80
2018-07-11T20:23:30.863Z,56.10
2018-07-11T20:25:59.711Z,55.90
2018-07-11T20:28:28.569Z,56.00
2018-07-11T20:30:58.169Z,55.80
2018-07-11T20:33:27.770Z,55.70
2018-07-11T20:35:56.627Z,55.50
2018-07-11T20:38:25.464Z,55.30
2018-07-11T20:40:54.320Z,54.50
2018-07-11T20:43:23.170Z,54.70
2018-07-11T20:45:52.020Z,55.00
2018-07-11T20:48:20.872Z,55.00
2018-07-11T20:50:49.715Z,54.50
2018-07-11T20:53:19.292Z,55.20
2018-07-11T20:55:48.145Z,55.60
2018-07-11T21:01:30.947Z,55.00
2018-07-11T21:03:59.795Z,54.90
2018-07-11T21:06:28.667Z,54.60
2018-07-11T21:08:57.506Z,54.80
2018-07-11T21:11:26.350Z,54.80
2018-07-11T21:13:55.255Z,54.60
2018-07-11T21:16:24.066Z,54.70
2018-07-11T21:18:53.663Z,54.70
2018-07-11T21:21:22.493Z,54.80
2018-07-11T21:23:51.343Z,55.40
2018-07-11T21:26:20.180Z,54.80
2018-07-11T21:28:49.041Z,54.90
2018-07-11T21:31:18.633Z,54.90
2018-07-11T21:33:47.488Z,54.80
2018-07-11T21:36:16.334Z,55.00
2018-07-11T21:38:45.187Z,54.70
2018-07-11T21:41:14.027Z,54.80
2018-07-11T21:43:43.622Z,55.20
2018-07-11T21:46:12.472Z,55.30
2018-07-11T21:48:41.307Z,56.00
2018-07-11T21:51:10.159Z,55.40
2018-07-11T21:53:39.015Z,55.10
2018-07-11T21:56:08.591Z,55.30
2018-07-11T21:58:37.421Z,55.60
2018-07-11T22:01:06.276Z,55.40
2018-07-11T22:03:35.110Z,55.60
2018-07-11T22:06:03.960Z,56.00
2018-07-11T22:08:32.802Z,56.20
2018-07-11T22:11:01.672Z,56.20
2018-07-11T22:13:30.530Z,56.50
2018-07-11T22:15:59.388Z,56.90
2018-07-11T22:18:30.077Z,57.60
2018-07-11T22:20:58.162Z,58.00
2018-07-11T22:25:55.203Z,58.70
2018-07-11T22:28:23.314Z,59.10
2018-07-11T22:30:51.390Z,59.00
2018-07-11T22:33:19.480Z,59.40
2018-07-11T22:35:47.570Z,59.10
2018-07-11T22:38:15.664Z,59.30
2018-07-11T22:40:43.749Z,59.40
2018-07-11T22:45:40.779Z,59.70
2018-07-11T22:48:08.875Z,59.60
2018-07-11T22:50:36.965Z,59.70
2018-07-11T22:53:05.153Z,60.00
2018-07-11T22:55:33.254Z,60.20
2018-07-11T22:58:01.343Z,60.90
2018-07-11T23:00:29.432Z,60.50
2018-07-11T23:02:57.515Z,60.50
2018-07-11T23:05:25.610Z,60.80
2018-07-11T23:07:53.691Z,61.20
2018-07-11T23:10:21.779Z,61.70
2018-07-11T23:12:50.624Z,62.20
2018-07-11T23:15:18.712Z,62.40
2018-07-11T23:17:46.799Z,62.90
2018-07-11T23:20:14.891Z,63.20
2018-07-11T23:22:43.731Z,63.50
2018-07-11T23:25:11.811Z,63.50
2018-07-11T23:27:39.898Z,63.80
2018-07-11T23:30:07.997Z,63.80
2018-07-11T23:32:36.842Z,63.90
2018-07-11T23:35:04.929Z,63.80
2018-07-11T23:37:33.019Z,64.10
2018-07-11T23:40:01.847Z,64.00
2018-07-11T23:42:29.937Z,64.20
2018-07-11T23:44:58.018Z,64.50
2018-07-11T23:47:26.109Z,64.70
2018-07-11T23:49:54.197Z,65.00
2018-07-11T23:52:22.299Z,65.10
2018-07-11T23:54:51.122Z,65.20
2018-07-11T23:57:19.211Z,65.30
2018-07-11T23:59:47.309Z,65.30
